sensor_id;sensor_type;location;lat;lon;timestamp;P1;durP1;ratioP1;P2;durP2;ratioP2
55114;SDS011;41010;53.252;5.786;2023-07-13T00:01:05;2.35;;;0.80;;
55114;SDS011;41010;53.252;5.786;2023-07-13T00:03:32;2.60;;;0.73;;
55114;SDS011;41010;53.252;5.786;2023-07-13T00:06:00;6.78;;;0.98;;
55114;SDS011;41010;53.252;5.786;2023-07-13T00:08:29;2.78;;;0.60;;
55114;SDS011;41010;53.252;5.786;2023-07-13T00:10:59;3.58;;;0.75;;
55114;SDS011;41010;53.252;5.786;2023-07-13T00:13:26;3.33;;;0.70;;
55114;SDS011;41010;53.252;5.786;2023-07-13T00:15:54;2.22;;;0.60;;
55114;SDS011;41010;53.252;5.786;2023-07-13T00:18:21;5.95;;;0.60;;
55114;SDS011;41010;53.252;5.786;2023-07-13T00:20:49;3.63;;;0.90;;
55114;SDS011;41010;53.252;5.786;2023-07-13T00:23:16;1.30;;;0.60;;
55114;SDS011;41010;53.252;5.786;2023-07-13T00:25:44;3.03;;;0.70;;
55114;SDS011;41010;53.252;5.786;2023-07-13T00:28:12;4.53;;;0.85;;
55114;SDS011;41010;53.252;5.786;2023-07-13T00:30:40;2.08;;;0.63;;
55114;SDS011;41010;53.252;5.786;2023-07-13T00:33:07;2.03;;;0.55;;
55114;SDS011;41010;53.252;5.786;2023-07-13T00:35:34;4.18;;;0.75;;
55114;SDS011;41010;53.252;5.786;2023-07-13T00:38:03;3.08;;;0.60;;
55114;SDS011;41010;53.252;5.786;2023-07-13T00:40:30;3.72;;;0.65;;
55114;SDS011;41010;53.252;5.786;2023-07-13T00:42:58;4.38;;;0.90;;
55114;SDS011;41010;53.252;5.786;2023-07-13T00:48:13;2.58;;;0.80;;
55114;SDS011;41010;53.252;5.786;2023-07-13T00:50:41;3.83;;;0.60;;
55114;SDS011;41010;53.252;5.786;2023-07-13T00:53:09;2.20;;;0.57;;
55114;SDS011;41010;53.252;5.786;2023-07-13T00:55:36;2.17;;;0.60;;
55114;SDS011;41010;53.252;5.786;2023-07-13T00:58:05;4.53;;;0.60;;
55114;SDS011;41010;53.252;5.786;2023-07-13T01:00:32;2.25;;;0.70;;
55114;SDS011;41010;53.252;5.786;2023-07-13T01:03:01;2.10;;;0.52;;
55114;SDS011;41010;53.252;5.786;2023-07-13T01:05:32;2.20;;;0.60;;
55114;SDS011;41010;53.252;5.786;2023-07-13T01:07:59;3.47;;;0.50;;
55114;SDS011;41010;53.252;5.786;2023-07-13T01:10:29;2.20;;;0.50;;
55114;SDS011;41010;53.252;5.786;2023-07-13T01:13:04;0.93;;;0.40;;
55114;SDS011;41010;53.252;5.786;2023-07-13T01:15:35;3.13;;;0.50;;
55114;SDS011;41010;53.252;5.786;2023-07-13T01:18:03;3.60;;;0.40;;
55114;SDS011;41010;53.252;5.786;2023-07-13T01:20:32;2.20;;;0.43;;
55114;SDS011;41010;53.252;5.786;2023-07-13T01:23:04;2.50;;;0.93;;
55114;SDS011;41010;53.252;5.786;2023-07-13T01:25:32;1.08;;;0.45;;
55114;SDS011;41010;53.252;5.786;2023-07-13T01:28:00;3.95;;;0.88;;
55114;SDS011;41010;53.252;5.786;2023-07-13T01:30:28;3.28;;;0.50;;
55114;SDS011;41010;53.252;5.786;2023-07-13T01:32:56;2.60;;;0.60;;
55114;SDS011;41010;53.252;5.786;2023-07-13T01:35:23;1.15;;;0.30;;
55114;SDS011;41010;53.252;5.786;2023-07-13T01:37:52;2.28;;;0.55;;
55114;SDS011;41010;53.252;5.786;2023-07-13T01:40:20;5.13;;;0.50;;
55114;SDS011;41010;53.252;5.786;2023-07-13T01:42:48;3.30;;;0.47;;
55114;SDS011;41010;53.252;5.786;2023-07-13T01:45:15;3.22;;;0.60;;
55114;SDS011;41010;53.252;5.786;2023-07-13T01:47:42;2.92;;;0.70;;
55114;SDS011;41010;53.252;5.786;2023-07-13T01:50:10;1.88;;;0.52;;
55114;SDS011;41010;53.252;5.786;2023-07-13T01:52:37;0.65;;;0.40;;
55114;SDS011;41010;53.252;5.786;2023-07-13T01:55:04;4.15;;;0.70;;
55114;SDS011;41010;53.252;5.786;2023-07-13T01:57:33;3.90;;;0.65;;
55114;SDS011;41010;53.252;5.786;2023-07-13T02:00:03;2.75;;;0.65;;
55114;SDS011;41010;53.252;5.786;2023-07-13T02:02:30;3.83;;;0.80;;
55114;SDS011;41010;53.252;5.786;2023-07-13T02:04:58;5.07;;;0.85;;
55114;SDS011;41010;53.252;5.786;2023-07-13T02:07:25;6.20;;;0.90;;
55114;SDS011;41010;53.252;5.786;2023-07-13T02:09:52;3.67;;;1.00;;
55114;SDS011;41010;53.252;5.786;2023-07-13T02:12:19;1.33;;;0.60;;
55114;SDS011;41010;53.252;5.786;2023-07-13T02:14:48;2.35;;;0.75;;
55114;SDS011;41010;53.252;5.786;2023-07-13T02:17:15;4.53;;;0.80;;
55114;SDS011;41010;53.252;5.786;2023-07-13T02:19:42;5.07;;;1.10;;
55114;SDS011;41010;53.252;5.786;2023-07-13T02:22:10;2.40;;;0.70;;
55114;SDS011;41010;53.252;5.786;2023-07-13T02:24:37;2.17;;;0.70;;
55114;SDS011;41010;53.252;5.786;2023-07-13T02:27:04;6.57;;;1.02;;
55114;SDS011;41010;53.252;5.786;2023-07-13T02:29:32;4.57;;;0.90;;
55114;SDS011;41010;53.252;5.786;2023-07-13T02:32:00;4.13;;;0.88;;
55114;SDS011;41010;53.252;5.786;2023-07-13T02:34:28;2.67;;;0.70;;
55114;SDS011;41010;53.252;5.786;2023-07-13T02:36:55;3.47;;;0.80;;
55114;SDS011;41010;53.252;5.786;2023-07-13T02:39:22;7.55;;;1.02;;
55114;SDS011;41010;53.252;5.786;2023-07-13T02:41:50;5.97;;;1.08;;
55114;SDS011;41010;53.252;5.786;2023-07-13T02:44:17;3.40;;;0.75;;
55114;SDS011;41010;53.252;5.786;2023-07-13T02:46:44;6.30;;;0.98;;
55114;SDS011;41010;53.252;5.786;2023-07-13T02:49:13;2.17;;;0.60;;
55114;SDS011;41010;53.252;5.786;2023-07-13T02:51:40;3.83;;;0.90;;
55114;SDS011;41010;53.252;5.786;2023-07-13T02:54:08;5.50;;;0.90;;
55114;SDS011;41010;53.252;5.786;2023-07-13T02:56:36;8.40;;;1.10;;
55114;SDS011;41010;53.252;5.786;2023-07-13T02:59:04;3.40;;;0.93;;
55114;SDS011;41010;53.252;5.786;2023-07-13T03:01:32;3.83;;;0.95;;
55114;SDS011;41010;53.252;5.786;2023-07-13T03:04:00;6.18;;;0.90;;
55114;SDS011;41010;53.252;5.786;2023-07-13T03:06:29;5.57;;;0.90;;
55114;SDS011;41010;53.252;5.786;2023-07-13T03:08:57;5.30;;;0.90;;
55114;SDS011;41010;53.252;5.786;2023-07-13T03:11:25;2.47;;;1.00;;
55114;SDS011;41010;53.252;5.786;2023-07-13T03:13:52;5.88;;;1.00;;
55114;SDS011;41010;53.252;5.786;2023-07-13T03:16:20;5.47;;;1.10;;
55114;SDS011;41010;53.252;5.786;2023-07-13T03:18:47;3.25;;;0.90;;
55114;SDS011;41010;53.252;5.786;2023-07-13T03:21:15;2.05;;;0.75;;
55114;SDS011;41010;53.252;5.786;2023-07-13T03:23:43;3.25;;;1.10;;
55114;SDS011;41010;53.252;5.786;2023-07-13T03:26:12;6.15;;;1.40;;
55114;SDS011;41010;53.252;5.786;2023-07-13T03:28:39;4.72;;;1.17;;
55114;SDS011;41010;53.252;5.786;2023-07-13T03:31:07;4.03;;;1.10;;
55114;SDS011;41010;53.252;5.786;2023-07-13T03:33:35;5.32;;;1.00;;
55114;SDS011;41010;53.252;5.786;2023-07-13T03:36:02;3.30;;;1.10;;
55114;SDS011;41010;53.252;5.786;2023-07-13T03:38:30;4.38;;;1.10;;
55114;SDS011;41010;53.252;5.786;2023-07-13T03:40:59;4.88;;;1.05;;
55114;SDS011;41010;53.252;5.786;2023-07-13T03:43:26;7.10;;;1.25;;
55114;SDS011;41010;53.252;5.786;2023-07-13T03:45:53;3.55;;;1.30;;
55114;SDS011;41010;53.252;5.786;2023-07-13T03:48:20;6.18;;;1.33;;
55114;SDS011;41010;53.252;5.786;2023-07-13T03:50:48;8.85;;;1.85;;
55114;SDS011;41010;53.252;5.786;2023-07-13T03:53:15;8.05;;;1.40;;
55114;SDS011;41010;53.252;5.786;2023-07-13T03:55:43;4.95;;;1.52;;
55114;SDS011;41010;53.252;5.786;2023-07-13T03:58:25;2.90;;;1.20;;
55114;SDS011;41010;53.252;5.786;2023-07-13T04:00:52;4.05;;;1.10;;
55114;SDS011;41010;53.252;5.786;2023-07-13T04:03:20;4.78;;;1.30;;
55114;SDS011;41010;53.252;5.786;2023-07-13T04:05:47;2.97;;;1.10;;
55114;SDS011;41010;53.252;5.786;2023-07-13T04:08:14;7.63;;;1.27;;
55114;SDS011;41010;53.252;5.786;2023-07-13T04:10:42;4.20;;;1.20;;
55114;SDS011;41010;53.252;5.786;2023-07-13T04:13:09;4.75;;;1.42;;
55114;SDS011;41010;53.252;5.786;2023-07-13T04:15:38;5.13;;;1.70;;
55114;SDS011;41010;53.252;5.786;2023-07-13T04:18:06;3.25;;;1.02;;
55114;SDS011;41010;53.252;5.786;2023-07-13T04:20:34;4.22;;;1.30;;
55114;SDS011;41010;53.252;5.786;2023-07-13T04:23:01;3.50;;;1.20;;
55114;SDS011;41010;53.252;5.786;2023-07-13T04:25:28;5.80;;;1.40;;
55114;SDS011;41010;53.252;5.786;2023-07-13T04:27:56;3.95;;;1.30;;
55114;SDS011;41010;53.252;5.786;2023-07-13T04:30:23;4.10;;;1.40;;
55114;SDS011;41010;53.252;5.786;2023-07-13T04:32:52;6.15;;;1.40;;
55114;SDS011;41010;53.252;5.786;2023-07-13T04:35:20;5.35;;;1.10;;
55114;SDS011;41010;53.252;5.786;2023-07-13T04:37:48;4.47;;;1.45;;
55114;SDS011;41010;53.252;5.786;2023-07-13T04:40:15;6.65;;;1.30;;
55114;SDS011;41010;53.252;5.786;2023-07-13T04:42:43;9.20;;;1.42;;
55114;SDS011;41010;53.252;5.786;2023-07-13T04:45:10;4.50;;;1.33;;
55114;SDS011;41010;53.252;5.786;2023-07-13T04:47:38;12.00;;;1.58;;
55114;SDS011;41010;53.252;5.786;2023-07-13T04:50:07;10.13;;;1.52;;
55114;SDS011;41010;53.252;5.786;2023-07-13T04:52:35;5.25;;;1.40;;
55114;SDS011;41010;53.252;5.786;2023-07-13T04:55:03;3.70;;;1.13;;
55114;SDS011;41010;53.252;5.786;2023-07-13T04:57:31;6.40;;;1.65;;
55114;SDS011;41010;53.252;5.786;2023-07-13T04:59:59;4.50;;;1.27;;
55114;SDS011;41010;53.252;5.786;2023-07-13T05:02:26;3.60;;;1.17;;
55114;SDS011;41010;53.252;5.786;2023-07-13T05:04:56;2.88;;;1.20;;
55114;SDS011;41010;53.252;5.786;2023-07-13T05:07:25;2.38;;;0.98;;
55114;SDS011;41010;53.252;5.786;2023-07-13T05:09:52;2.67;;;0.98;;
55114;SDS011;41010;53.252;5.786;2023-07-13T05:12:20;3.17;;;0.80;;
55114;SDS011;41010;53.252;5.786;2023-07-13T05:14:47;3.70;;;1.10;;
55114;SDS011;41010;53.252;5.786;2023-07-13T05:17:15;3.05;;;0.95;;
55114;SDS011;41010;53.252;5.786;2023-07-13T05:19:42;2.35;;;0.75;;
55114;SDS011;41010;53.252;5.786;2023-07-13T05:22:09;3.15;;;0.80;;
55114;SDS011;41010;53.252;5.786;2023-07-13T05:24:38;10.07;;;0.90;;
55114;SDS011;41010;53.252;5.786;2023-07-13T05:27:05;1.98;;;0.70;;
55114;SDS011;41010;53.252;5.786;2023-07-13T05:29:32;5.45;;;0.93;;
55114;SDS011;41010;53.252;5.786;2023-07-13T05:31:59;3.28;;;0.90;;
55114;SDS011;41010;53.252;5.786;2023-07-13T05:34:27;3.25;;;0.80;;
55114;SDS011;41010;53.252;5.786;2023-07-13T05:36:54;3.13;;;0.80;;
55114;SDS011;41010;53.252;5.786;2023-07-13T05:39:21;10.00;;;0.77;;
55114;SDS011;41010;53.252;5.786;2023-07-13T05:41:51;5.10;;;1.50;;
55114;SDS011;41010;53.252;5.786;2023-07-13T05:44:18;3.63;;;1.10;;
55114;SDS011;41010;53.252;5.786;2023-07-13T05:46:45;3.08;;;0.80;;
55114;SDS011;41010;53.252;5.786;2023-07-13T05:49:12;2.25;;;0.90;;
55114;SDS011;41010;53.252;5.786;2023-07-13T05:51:40;4.97;;;0.88;;
55114;SDS011;41010;53.252;5.786;2023-07-13T05:54:07;2.08;;;0.70;;
55114;SDS011;41010;53.252;5.786;2023-07-13T05:56:34;1.65;;;0.70;;
55114;SDS011;41010;53.252;5.786;2023-07-13T05:59:03;2.05;;;0.80;;
55114;SDS011;41010;53.252;5.786;2023-07-13T06:01:30;5.00;;;0.82;;
55114;SDS011;41010;53.252;5.786;2023-07-13T06:03:57;3.92;;;0.90;;
55114;SDS011;41010;53.252;5.786;2023-07-13T06:06:25;2.83;;;0.70;;
55114;SDS011;41010;53.252;5.786;2023-07-13T06:08:52;3.08;;;0.70;;
55114;SDS011;41010;53.252;5.786;2023-07-13T06:11:20;1.58;;;0.60;;
55114;SDS011;41010;53.252;5.786;2023-07-13T06:13:48;2.80;;;0.60;;
55114;SDS011;41010;53.252;5.786;2023-07-13T06:16:16;4.05;;;0.77;;
55114;SDS011;41010;53.252;5.786;2023-07-13T06:18:44;2.25;;;0.70;;
55114;SDS011;41010;53.252;5.786;2023-07-13T06:21:12;4.18;;;0.98;;
55114;SDS011;41010;53.252;5.786;2023-07-13T06:23:40;2.50;;;0.70;;
55114;SDS011;41010;53.252;5.786;2023-07-13T06:26:07;3.42;;;0.70;;
55114;SDS011;41010;53.252;5.786;2023-07-13T06:28:34;2.47;;;0.68;;
55114;SDS011;41010;53.252;5.786;2023-07-13T06:31:04;3.28;;;0.70;;
55114;SDS011;41010;53.252;5.786;2023-07-13T06:33:33;4.95;;;0.70;;
55114;SDS011;41010;53.252;5.786;2023-07-13T06:36:00;2.90;;;0.75;;
55114;SDS011;41010;53.252;5.786;2023-07-13T06:38:28;4.43;;;0.70;;
55114;SDS011;41010;53.252;5.786;2023-07-13T06:40:55;2.35;;;0.70;;
55114;SDS011;41010;53.252;5.786;2023-07-13T06:43:22;1.33;;;0.60;;
55114;SDS011;41010;53.252;5.786;2023-07-13T06:45:51;1.80;;;0.80;;
55114;SDS011;41010;53.252;5.786;2023-07-13T06:48:18;4.43;;;0.88;;
55114;SDS011;41010;53.252;5.786;2023-07-13T06:50:47;1.35;;;0.50;;
55114;SDS011;41010;53.252;5.786;2023-07-13T06:53:17;1.42;;;0.65;;
55114;SDS011;41010;53.252;5.786;2023-07-13T06:55:44;2.20;;;0.70;;
55114;SDS011;41010;53.252;5.786;2023-07-13T06:58:11;3.35;;;0.63;;
55114;SDS011;41010;53.252;5.786;2023-07-13T07:00:38;1.65;;;0.65;;
55114;SDS011;41010;53.252;5.786;2023-07-13T07:03:06;2.20;;;0.63;;
55114;SDS011;41010;53.252;5.786;2023-07-13T07:05:33;1.70;;;0.57;;
55114;SDS011;41010;53.252;5.786;2023-07-13T07:08:02;2.22;;;0.50;;
55114;SDS011;41010;53.252;5.786;2023-07-13T07:10:29;0.55;;;0.43;;
55114;SDS011;41010;53.252;5.786;2023-07-13T07:12:57;1.52;;;0.50;;
55114;SDS011;41010;53.252;5.786;2023-07-13T07:15:24;1.73;;;0.70;;
55114;SDS011;41010;53.252;5.786;2023-07-13T07:17:52;1.10;;;0.50;;
55114;SDS011;41010;53.252;5.786;2023-07-13T07:20:19;3.00;;;0.77;;
55114;SDS011;41010;53.252;5.786;2023-07-13T07:22:46;1.73;;;0.60;;
55114;SDS011;41010;53.252;5.786;2023-07-13T07:25:15;2.13;;;0.77;;
55114;SDS011;41010;53.252;5.786;2023-07-13T07:27:43;2.28;;;0.60;;
55114;SDS011;41010;53.252;5.786;2023-07-13T07:30:10;1.08;;;0.50;;
55114;SDS011;41010;53.252;5.786;2023-07-13T07:32:37;2.25;;;0.57;;
55114;SDS011;41010;53.252;5.786;2023-07-13T07:35:05;2.55;;;0.60;;
55114;SDS011;41010;53.252;5.786;2023-07-13T07:37:33;4.95;;;0.70;;
55114;SDS011;41010;53.252;5.786;2023-07-13T07:40:00;2.47;;;0.80;;
55114;SDS011;41010;53.252;5.786;2023-07-13T07:42:29;2.50;;;0.75;;
55114;SDS011;41010;53.252;5.786;2023-07-13T07:44:56;2.60;;;0.73;;
55114;SDS011;41010;53.252;5.786;2023-07-13T07:47:23;2.03;;;0.70;;
55114;SDS011;41010;53.252;5.786;2023-07-13T07:49:51;1.98;;;0.63;;
55114;SDS011;41010;53.252;5.786;2023-07-13T07:52:18;3.33;;;0.65;;
55114;SDS011;41010;53.252;5.786;2023-07-13T07:54:45;1.67;;;0.77;;
55114;SDS011;41010;53.252;5.786;2023-07-13T07:57:12;3.00;;;1.00;;
55114;SDS011;41010;53.252;5.786;2023-07-13T07:59:41;1.25;;;0.60;;
55114;SDS011;41010;53.252;5.786;2023-07-13T08:02:08;2.45;;;0.70;;
55114;SDS011;41010;53.252;5.786;2023-07-13T08:04:36;1.30;;;0.65;;
55114;SDS011;41010;53.252;5.786;2023-07-13T08:07:04;3.90;;;0.70;;
55114;SDS011;41010;53.252;5.786;2023-07-13T08:09:31;3.58;;;1.00;;
55114;SDS011;41010;53.252;5.786;2023-07-13T08:11:59;3.65;;;0.77;;
55114;SDS011;41010;53.252;5.786;2023-07-13T08:14:26;2.35;;;0.73;;
55114;SDS011;41010;53.252;5.786;2023-07-13T08:16:55;4.47;;;0.90;;
55114;SDS011;41010;53.252;5.786;2023-07-13T08:19:22;2.58;;;1.10;;
55114;SDS011;41010;53.252;5.786;2023-07-13T08:21:49;2.72;;;0.80;;
55114;SDS011;41010;53.252;5.786;2023-07-13T08:24:16;3.63;;;0.70;;
55114;SDS011;41010;53.252;5.786;2023-07-13T08:26:44;1.98;;;1.02;;
55114;SDS011;41010;53.252;5.786;2023-07-13T08:29:12;2.63;;;0.80;;
55114;SDS011;41010;53.252;5.786;2023-07-13T08:31:39;1.58;;;0.50;;
55114;SDS011;41010;53.252;5.786;2023-07-13T08:34:08;1.33;;;0.50;;
55114;SDS011;41010;53.252;5.786;2023-07-13T08:36:35;8.38;;;0.77;;
55114;SDS011;41010;53.252;5.786;2023-07-13T08:39:02;1.60;;;0.68;;
55114;SDS011;41010;53.252;5.786;2023-07-13T08:41:31;2.90;;;1.15;;
55114;SDS011;41010;53.252;5.786;2023-07-13T08:43:59;2.20;;;0.60;;
55114;SDS011;41010;53.252;5.786;2023-07-13T08:46:30;3.38;;;0.80;;
55114;SDS011;41010;53.252;5.786;2023-07-13T08:48:59;3.90;;;0.75;;
55114;SDS011;41010;53.252;5.786;2023-07-13T08:51:32;1.88;;;0.65;;
55114;SDS011;41010;53.252;5.786;2023-07-13T08:54:01;1.90;;;0.52;;
55114;SDS011;41010;53.252;5.786;2023-07-13T08:56:29;1.45;;;0.70;;
55114;SDS011;41010;53.252;5.786;2023-07-13T08:58:58;2.05;;;0.55;;
55114;SDS011;41010;53.252;5.786;2023-07-13T09:01:28;5.05;;;0.60;;
55114;SDS011;41010;53.252;5.786;2023-07-13T09:03:58;1.38;;;0.57;;
55114;SDS011;41010;53.252;5.786;2023-07-13T09:06:27;2.38;;;0.40;;
55114;SDS011;41010;53.252;5.786;2023-07-13T09:08:59;1.75;;;0.57;;
55114;SDS011;41010;53.252;5.786;2023-07-13T09:11:33;0.88;;;0.40;;
55114;SDS011;41010;53.252;5.786;2023-07-13T09:14:16;1.42;;;0.50;;
55114;SDS011;41010;53.252;5.786;2023-07-13T09:16:46;1.07;;;0.57;;
55114;SDS011;41010;53.252;5.786;2023-07-13T09:19:17;0.88;;;0.40;;
55114;SDS011;41010;53.252;5.786;2023-07-13T09:21:47;1.30;;;0.60;;
55114;SDS011;41010;53.252;5.786;2023-07-13T09:24:26;2.22;;;0.60;;
55114;SDS011;41010;53.252;5.786;2023-07-13T09:26:55;0.65;;;0.40;;
55114;SDS011;41010;53.252;5.786;2023-07-13T09:29:24;4.75;;;0.65;;
55114;SDS011;41010;53.252;5.786;2023-07-13T09:31:54;1.80;;;0.50;;
55114;SDS011;41010;53.252;5.786;2023-07-13T09:34:23;1.88;;;0.57;;
55114;SDS011;41010;53.252;5.786;2023-07-13T09:36:51;2.55;;;0.65;;
55114;SDS011;41010;53.252;5.786;2023-07-13T09:39:20;1.90;;;0.60;;
55114;SDS011;41010;53.252;5.786;2023-07-13T09:41:53;2.58;;;0.47;;
55114;SDS011;41010;53.252;5.786;2023-07-13T09:44:27;1.30;;;0.50;;
55114;SDS011;41010;53.252;5.786;2023-07-13T09:46:56;3.60;;;0.75;;
55114;SDS011;41010;53.252;5.786;2023-07-13T09:49:23;1.50;;;0.57;;
55114;SDS011;41010;53.252;5.786;2023-07-13T09:51:57;2.42;;;0.63;;
55114;SDS011;41010;53.252;5.786;2023-07-13T09:54:25;3.10;;;0.60;;
55114;SDS011;41010;53.252;5.786;2023-07-13T09:56:56;1.70;;;0.80;;
55114;SDS011;41010;53.252;5.786;2023-07-13T09:59:26;0.80;;;0.55;;
55114;SDS011;41010;53.252;5.786;2023-07-13T10:01:54;0.90;;;0.65;;
55114;SDS011;41010;53.252;5.786;2023-07-13T10:04:27;4.35;;;1.20;;
55114;SDS011;41010;53.252;5.786;2023-07-13T10:07:04;1.90;;;0.77;;
55114;SDS011;41010;53.252;5.786;2023-07-13T10:09:32;1.05;;;0.60;;
55114;SDS011;41010;53.252;5.786;2023-07-13T10:12:01;3.83;;;0.68;;
55114;SDS011;41010;53.252;5.786;2023-07-13T10:14:28;3.92;;;0.70;;
55114;SDS011;41010;53.252;5.786;2023-07-13T10:16:58;3.17;;;0.60;;
55114;SDS011;41010;53.252;5.786;2023-07-13T10:19:27;1.65;;;0.75;;
55114;SDS011;41010;53.252;5.786;2023-07-13T10:21:57;1.63;;;0.77;;
55114;SDS011;41010;53.252;5.786;2023-07-13T10:24:25;1.60;;;0.88;;
55114;SDS011;41010;53.252;5.786;2023-07-13T10:27:03;4.82;;;0.90;;
55114;SDS011;41010;53.252;5.786;2023-07-13T10:29:35;5.70;;;1.10;;
55114;SDS011;41010;53.252;5.786;2023-07-13T10:32:03;1.80;;;0.77;;
55114;SDS011;41010;53.252;5.786;2023-07-13T10:34:36;5.60;;;1.00;;
55114;SDS011;41010;53.252;5.786;2023-07-13T10:37:04;3.55;;;1.23;;
55114;SDS011;41010;53.252;5.786;2023-07-13T10:39:32;3.88;;;1.33;;
55114;SDS011;41010;53.252;5.786;2023-07-13T10:42:01;2.83;;;0.80;;
55114;SDS011;41010;53.252;5.786;2023-07-13T10:44:30;2.45;;;0.70;;
55114;SDS011;41010;53.252;5.786;2023-07-13T10:47:00;2.08;;;0.60;;
55114;SDS011;41010;53.252;5.786;2023-07-13T10:49:29;5.15;;;0.80;;
55114;SDS011;41010;53.252;5.786;2023-07-13T10:51:57;3.28;;;0.80;;
55114;SDS011;41010;53.252;5.786;2023-07-13T10:54:26;3.83;;;0.70;;
55114;SDS011;41010;53.252;5.786;2023-07-13T10:57:06;4.07;;;0.70;;
55114;SDS011;41010;53.252;5.786;2023-07-13T10:59:34;1.98;;;0.73;;
55114;SDS011;41010;53.252;5.786;2023-07-13T11:02:10;2.45;;;0.82;;
55114;SDS011;41010;53.252;5.786;2023-07-13T11:04:41;2.47;;;0.80;;
55114;SDS011;41010;53.252;5.786;2023-07-13T11:07:19;2.35;;;0.90;;
55114;SDS011;41010;53.252;5.786;2023-07-13T11:09:49;2.05;;;0.82;;
55114;SDS011;41010;53.252;5.786;2023-07-13T11:12:27;2.45;;;0.93;;
55114;SDS011;41010;53.252;5.786;2023-07-13T11:15:06;3.30;;;1.13;;
55114;SDS011;41010;53.252;5.786;2023-07-13T11:17:45;4.50;;;1.15;;
55114;SDS011;41010;53.252;5.786;2023-07-13T11:20:22;2.42;;;0.90;;
55114;SDS011;41010;53.252;5.786;2023-07-13T11:22:50;4.57;;;1.00;;
55114;SDS011;41010;53.252;5.786;2023-07-13T11:25:25;3.63;;;1.13;;
55114;SDS011;41010;53.252;5.786;2023-07-13T11:28:04;1.90;;;1.00;;
55114;SDS011;41010;53.252;5.786;2023-07-13T11:30:34;2.95;;;1.15;;
55114;SDS011;41010;53.252;5.786;2023-07-13T11:33:04;4.95;;;1.20;;
55114;SDS011;41010;53.252;5.786;2023-07-13T11:35:38;3.78;;;0.90;;
55114;SDS011;41010;53.252;5.786;2023-07-13T11:38:10;6.40;;;1.20;;
55114;SDS011;41010;53.252;5.786;2023-07-13T11:40:39;3.53;;;1.00;;
55114;SDS011;41010;53.252;5.786;2023-07-13T11:43:08;2.65;;;1.17;;
55114;SDS011;41010;53.252;5.786;2023-07-13T11:45:35;4.93;;;1.27;;
55114;SDS011;41010;53.252;5.786;2023-07-13T11:48:04;3.40;;;1.45;;
55114;SDS011;41010;53.252;5.786;2023-07-13T11:50:31;4.70;;;1.10;;
55114;SDS011;41010;53.252;5.786;2023-07-13T11:52:58;3.40;;;1.23;;
55114;SDS011;41010;53.252;5.786;2023-07-13T11:55:26;3.53;;;1.10;;
55114;SDS011;41010;53.252;5.786;2023-07-13T11:57:58;2.85;;;1.10;;
55114;SDS011;41010;53.252;5.786;2023-07-13T12:00:28;3.17;;;0.93;;
55114;SDS011;41010;53.252;5.786;2023-07-13T12:02:57;3.83;;;1.20;;
55114;SDS011;41010;53.252;5.786;2023-07-13T12:05:27;2.50;;;1.10;;
55114;SDS011;41010;53.252;5.786;2023-07-13T12:07:56;2.33;;;1.10;;
55114;SDS011;41010;53.252;5.786;2023-07-13T12:10:25;2.53;;;0.85;;
55114;SDS011;41010;53.252;5.786;2023-07-13T12:12:55;3.47;;;1.00;;
55114;SDS011;41010;53.252;5.786;2023-07-13T12:15:23;4.03;;;1.25;;
55114;SDS011;41010;53.252;5.786;2023-07-13T12:17:51;3.00;;;1.00;;
55114;SDS011;41010;53.252;5.786;2023-07-13T12:20:21;6.22;;;1.05;;
55114;SDS011;41010;53.252;5.786;2023-07-13T12:22:51;3.63;;;1.20;;
55114;SDS011;41010;53.252;5.786;2023-07-13T12:25:19;4.18;;;1.10;;
55114;SDS011;41010;53.252;5.786;2023-07-13T12:27:47;3.63;;;1.33;;
55114;SDS011;41010;53.252;5.786;2023-07-13T12:30:25;2.33;;;0.98;;
55114;SDS011;41010;53.252;5.786;2023-07-13T12:32:57;2.10;;;0.80;;
55114;SDS011;41010;53.252;5.786;2023-07-13T12:35:28;3.63;;;0.95;;
55114;SDS011;41010;53.252;5.786;2023-07-13T12:38:02;2.30;;;1.00;;
55114;SDS011;41010;53.252;5.786;2023-07-13T12:40:31;4.55;;;1.10;;
55114;SDS011;41010;53.252;5.786;2023-07-13T12:42:59;2.20;;;0.95;;
55114;SDS011;41010;53.252;5.786;2023-07-13T12:45:29;3.38;;;1.38;;
55114;SDS011;41010;53.252;5.786;2023-07-13T12:47:58;2.35;;;1.08;;
55114;SDS011;41010;53.252;5.786;2023-07-13T12:50:29;2.88;;;1.25;;
55114;SDS011;41010;53.252;5.786;2023-07-13T12:53:02;3.42;;;1.10;;
55114;SDS011;41010;53.252;5.786;2023-07-13T12:55:37;1.98;;;0.90;;
55114;SDS011;41010;53.252;5.786;2023-07-13T12:58:10;3.70;;;1.35;;
55114;SDS011;41010;53.252;5.786;2023-07-13T13:00:47;3.38;;;1.10;;
55114;SDS011;41010;53.252;5.786;2023-07-13T13:03:21;7.13;;;1.48;;
55114;SDS011;41010;53.252;5.786;2023-07-13T13:05:49;2.88;;;1.13;;
55114;SDS011;41010;53.252;5.786;2023-07-13T13:08:16;2.60;;;1.08;;
55114;SDS011;41010;53.252;5.786;2023-07-13T13:10:44;5.15;;;1.23;;
55114;SDS011;41010;53.252;5.786;2023-07-13T13:13:13;5.35;;;1.38;;
55114;SDS011;41010;53.252;5.786;2023-07-13T13:15:40;4.20;;;1.33;;
55114;SDS011;41010;53.252;5.786;2023-07-13T13:18:11;4.28;;;1.20;;
55114;SDS011;41010;53.252;5.786;2023-07-13T13:20:42;4.45;;;1.23;;
55114;SDS011;41010;53.252;5.786;2023-07-13T13:23:10;5.13;;;1.30;;
55114;SDS011;41010;53.252;5.786;2023-07-13T13:25:39;4.68;;;1.52;;
55114;SDS011;41010;53.252;5.786;2023-07-13T13:28:10;7.55;;;1.25;;
55114;SDS011;41010;53.252;5.786;2023-07-13T13:30:41;4.18;;;1.25;;
55114;SDS011;41010;53.252;5.786;2023-07-13T13:33:09;7.75;;;1.60;;
55114;SDS011;41010;53.252;5.786;2023-07-13T13:35:37;4.90;;;1.30;;
55114;SDS011;41010;53.252;5.786;2023-07-13T13:38:08;7.70;;;1.60;;
55114;SDS011;41010;53.252;5.786;2023-07-13T13:40:36;5.40;;;1.40;;
55114;SDS011;41010;53.252;5.786;2023-07-13T13:43:04;1.75;;;0.90;;
55114;SDS011;41010;53.252;5.786;2023-07-13T13:45:33;2.95;;;1.40;;
55114;SDS011;41010;53.252;5.786;2023-07-13T13:48:00;3.78;;;1.10;;
55114;SDS011;41010;53.252;5.786;2023-07-13T13:50:27;3.03;;;1.10;;
55114;SDS011;41010;53.252;5.786;2023-07-13T13:52:55;3.97;;;1.38;;
55114;SDS011;41010;53.252;5.786;2023-07-13T13:55:22;4.18;;;1.10;;
55114;SDS011;41010;53.252;5.786;2023-07-13T13:57:49;3.85;;;1.20;;
55114;SDS011;41010;53.252;5.786;2023-07-13T14:00:17;4.65;;;1.50;;
55114;SDS011;41010;53.252;5.786;2023-07-13T14:02:46;5.07;;;1.30;;
55114;SDS011;41010;53.252;5.786;2023-07-13T14:05:18;3.05;;;1.27;;
55114;SDS011;41010;53.252;5.786;2023-07-13T14:07:47;2.47;;;1.17;;
55114;SDS011;41010;53.252;5.786;2023-07-13T14:10:15;4.63;;;1.30;;
55114;SDS011;41010;53.252;5.786;2023-07-13T14:12:44;3.00;;;1.23;;
55114;SDS011;41010;53.252;5.786;2023-07-13T14:15:13;3.58;;;1.30;;
55114;SDS011;41010;53.252;5.786;2023-07-13T14:17:45;1.20;;;1.10;;
55114;SDS011;41010;53.252;5.786;2023-07-13T14:20:15;2.35;;;1.40;;
55114;SDS011;41010;53.252;5.786;2023-07-13T14:22:42;4.72;;;1.20;;
55114;SDS011;41010;53.252;5.786;2023-07-13T14:25:10;1.80;;;1.25;;
55114;SDS011;41010;53.252;5.786;2023-07-13T14:27:38;2.60;;;1.30;;
55114;SDS011;41010;53.252;5.786;2023-07-13T14:30:09;4.20;;;1.30;;
55114;SDS011;41010;53.252;5.786;2023-07-13T14:32:39;1.45;;;1.02;;
55114;SDS011;41010;53.252;5.786;2023-07-13T14:35:08;5.22;;;1.38;;
55114;SDS011;41010;53.252;5.786;2023-07-13T14:37:37;4.75;;;1.38;;
55114;SDS011;41010;53.252;5.786;2023-07-13T14:40:11;4.40;;;1.60;;
55114;SDS011;41010;53.252;5.786;2023-07-13T14:42:38;8.18;;;1.85;;
55114;SDS011;41010;53.252;5.786;2023-07-13T14:45:11;4.22;;;1.35;;
55114;SDS011;41010;53.252;5.786;2023-07-13T14:47:38;3.15;;;1.48;;
55114;SDS011;41010;53.252;5.786;2023-07-13T14:50:11;4.47;;;1.80;;
55114;SDS011;41010;53.252;5.786;2023-07-13T14:55:08;2.53;;;1.45;;
55114;SDS011;41010;53.252;5.786;2023-07-13T14:57:35;3.92;;;1.33;;
55114;SDS011;41010;53.252;5.786;2023-07-13T15:00:03;5.63;;;1.33;;
55114;SDS011;41010;53.252;5.786;2023-07-13T15:02:33;2.97;;;1.30;;